sensor_id;sensor_type;location;lat;lon;timestamp;pressure;altitude;pressure_sealevel;temperature;humidity
62800;BME280;48842;51.046;13.796;2022-09-03T00:01:36;100536.00;;;18.57;nan
62800;BME280;48842;51.046;13.796;2022-09-03T00:04:13;100532.50;;;18.57;nan
62800;BME280;48842;51.046;13.796;2022-09-03T00:06:48;100536.94;;;18.56;nan
62800;BME280;48842;51.046;13.796;2022-09-03T00:09:22;100540.50;;;18.55;nan
62800;BME280;48842;51.046;13.796;2022-09-03T00:12:00;100532.53;;;18.55;nan
62800;BME280;48842;51.046;13.796;2022-09-03T00:14:36;100534.38;;;18.53;nan
62800;BME280;48842;51.046;13.796;2022-09-03T00:17:08;100530.78;;;18.54;nan
62800;BME280;48842;51.046;13.796;2022-09-03T00:19:40;100522.88;;;18.53;nan
62800;BME280;48842;51.046;13.796;2022-09-03T00:22:13;100514.94;;;18.51;nan
62800;BME280;48842;51.046;13.796;2022-09-03T00:24:42;100520.25;;;18.51;nan
62800;BME280;48842;51.046;13.796;2022-09-03T00:27:14;100511.47;;;18.49;nan
62800;BME280;48842;51.046;13.796;2022-09-03T00:29:54;100505.31;;;18.47;nan
62800;BME280;48842;51.046;13.796;2022-09-03T00:32:40;100507.97;;;18.47;nan
62800;BME280;48842;51.046;13.796;2022-09-03T00:35:11;100504.50;;;18.45;nan
62800;BME280;48842;51.046;13.796;2022-09-03T00:37:37;100499.28;;;18.42;nan
62800;BME280;48842;51.046;13.796;2022-09-03T00:40:04;100499.38;;;18.39;nan
62800;BME280;48842;51.046;13.796;2022-09-03T00:42:45;100502.09;;;18.36;nan
62800;BME280;48842;51.046;13.796;2022-09-03T00:48:24;100489.94;;;18.27;nan
62800;BME280;48842;51.046;13.796;2022-09-03T00:51:04;100492.69;;;18.22;nan
62800;BME280;48842;51.046;13.796;2022-09-03T00:53:40;100494.59;;;18.17;nan
62800;BME280;48842;51.046;13.796;2022-09-03T00:56:16;100496.47;;;18.12;nan
62800;BME280;48842;51.046;13.796;2022-09-03T00:59:11;100501.06;;;18.07;nan
62800;BME280;48842;51.046;13.796;2022-09-03T01:04:46;100500.28;;;18.02;nan
62800;BME280;48842;51.046;13.796;2022-09-03T01:10:22;100497.84;;;17.92;nan
62800;BME280;48842;51.046;13.796;2022-09-03T01:12:58;100497.06;;;17.87;nan
62800;BME280;48842;51.046;13.796;2022-09-03T01:15:39;100494.47;;;17.84;nan
62800;BME280;48842;51.046;13.796;2022-09-03T01:20:50;100491.97;;;17.78;nan
62800;BME280;48842;51.046;13.796;2022-09-03T01:26:38;100495.66;;;17.71;nan
62800;BME280;48842;51.046;13.796;2022-09-03T01:29:48;100503.69;;;17.68;nan
62800;BME280;48842;51.046;13.796;2022-09-03T01:32:24;100498.50;;;17.63;nan
62800;BME280;48842;51.046;13.796;2022-09-03T01:37:54;100504.81;;;17.57;nan
62800;BME280;48842;51.046;13.796;2022-09-03T01:43:42;100516.44;;;17.50;nan
62800;BME280;48842;51.046;13.796;2022-09-03T01:46:18;100515.66;;;17.47;nan
62800;BME280;48842;51.046;13.796;2022-09-03T01:51:35;100521.03;;;17.42;nan
62800;BME280;48842;51.046;13.796;2022-09-03T01:54:29;100519.31;;;17.41;nan
62800;BME280;48842;51.046;13.796;2022-09-03T01:57:34;100521.13;;;17.37;nan
62800;BME280;48842;51.046;13.796;2022-09-03T02:00:10;100516.78;;;17.35;nan
62800;BME280;48842;51.046;13.796;2022-09-03T02:02:38;100511.50;;;17.33;nan
62800;BME280;48842;51.046;13.796;2022-09-03T02:05:11;100504.50;;;17.31;nan
62800;BME280;48842;51.046;13.796;2022-09-03T02:07:41;100503.66;;;17.28;nan
62800;BME280;48842;51.046;13.796;2022-09-03T02:10:11;100504.59;;;17.27;nan
62800;BME280;48842;51.046;13.796;2022-09-03T02:12:38;100500.22;;;17.25;nan
62800;BME280;48842;51.046;13.796;2022-09-03T02:15:10;100504.69;;;17.21;nan
62800;BME280;48842;51.046;13.796;2022-09-03T02:17:36;100504.75;;;17.18;nan
62800;BME280;48842;51.046;13.796;2022-09-03T02:20:06;100502.19;;;17.15;nan
62800;BME280;48842;51.046;13.796;2022-09-03T02:22:32;100513.66;;;17.14;nan
62800;BME280;48842;51.046;13.796;2022-09-03T02:24:59;100503.13;;;17.11;nan
62800;BME280;48842;51.046;13.796;2022-09-03T02:27:24;100499.66;;;17.09;nan
62800;BME280;48842;51.046;13.796;2022-09-03T02:29:50;100498.84;;;17.05;nan
62800;BME280;48842;51.046;13.796;2022-09-03T02:32:15;100506.81;;;17.04;nan
62800;BME280;48842;51.046;13.796;2022-09-03T02:34:41;100498.91;;;17.02;nan
62800;BME280;48842;51.046;13.796;2022-09-03T02:37:14;100514.81;;;17.01;nan
62800;BME280;48842;51.046;13.796;2022-09-03T02:39:40;100510.47;;;16.98;nan
62800;BME280;48842;51.046;13.796;2022-09-03T02:42:06;100516.69;;;16.96;nan
62800;BME280;48842;51.046;13.796;2022-09-03T02:44:34;100510.56;;;16.92;nan
62800;BME280;48842;51.046;13.796;2022-09-03T02:47:03;100509.78;;;16.88;nan
62800;BME280;48842;51.046;13.796;2022-09-03T02:49:29;100504.50;;;16.85;nan
62800;BME280;48842;51.046;13.796;2022-09-03T02:51:59;100501.94;;;16.82;nan
62800;BME280;48842;51.046;13.796;2022-09-03T02:54:25;100509.88;;;16.82;nan
62800;BME280;48842;51.046;13.796;2022-09-03T02:56:52;100507.25;;;16.81;nan
62800;BME280;48842;51.046;13.796;2022-09-03T02:59:17;100509.03;;;16.79;nan
62800;BME280;48842;51.046;13.796;2022-09-03T03:01:42;100511.72;;;16.77;nan
62800;BME280;48842;51.046;13.796;2022-09-03T03:04:07;100510.84;;;16.77;nan
62800;BME280;48842;51.046;13.796;2022-09-03T03:06:33;100504.72;;;16.73;nan
62800;BME280;48842;51.046;13.796;2022-09-03T03:08:58;100504.78;;;16.70;nan
62800;BME280;48842;51.046;13.796;2022-09-03T03:11:24;100497.75;;;16.69;nan
62800;BME280;48842;51.046;13.796;2022-09-03T03:13:50;100502.22;;;16.67;nan
62800;BME280;48842;51.046;13.796;2022-09-03T03:16:16;100498.72;;;16.65;nan
62800;BME280;48842;51.046;13.796;2022-09-03T03:18:42;100493.47;;;16.62;nan
62800;BME280;48842;51.046;13.796;2022-09-03T03:21:11;100498.81;;;16.58;nan
62800;BME280;48842;51.046;13.796;2022-09-03T03:23:38;100496.22;;;16.55;nan
62800;BME280;48842;51.046;13.796;2022-09-03T03:26:06;100492.75;;;16.53;nan
62800;BME280;48842;51.046;13.796;2022-09-03T03:28:33;100496.34;;;16.49;nan
62800;BME280;48842;51.046;13.796;2022-09-03T03:31:11;100489.31;;;16.48;nan
62800;BME280;48842;51.046;13.796;2022-09-03T03:33:38;100495.53;;;16.47;nan
62800;BME280;48842;51.046;13.796;2022-09-03T03:36:05;100507.00;;;16.46;nan
62800;BME280;48842;51.046;13.796;2022-09-03T03:38:31;100507.03;;;16.45;nan
62800;BME280;48842;51.046;13.796;2022-09-03T03:40:56;100503.50;;;16.44;nan
62800;BME280;48842;51.046;13.796;2022-09-03T03:43:21;100510.63;;;16.40;nan
62800;BME280;48842;51.046;13.796;2022-09-03T03:46:05;100510.66;;;16.37;nan
62800;BME280;48842;51.046;13.796;2022-09-03T03:48:31;100515.09;;;16.37;nan
62800;BME280;48842;51.046;13.796;2022-09-03T03:51:01;100507.22;;;16.32;nan
62800;BME280;48842;51.046;13.796;2022-09-03T03:53:28;100508.22;;;16.27;nan
62800;BME280;48842;51.046;13.796;2022-09-03T03:55:55;100499.41;;;16.26;nan
62800;BME280;48842;51.046;13.796;2022-09-03T03:58:21;100511.72;;;16.27;nan
62800;BME280;48842;51.046;13.796;2022-09-03T04:00:47;100509.09;;;16.26;nan
62800;BME280;48842;51.046;13.796;2022-09-03T04:03:13;100508.28;;;16.20;nan
62800;BME280;48842;51.046;13.796;2022-09-03T04:05:38;100506.63;;;16.15;nan
62800;BME280;48842;51.046;13.796;2022-09-03T04:08:03;100505.81;;;16.11;nan
62800;BME280;48842;51.046;13.796;2022-09-03T04:10:29;100498.81;;;16.09;nan
62800;BME280;48842;51.046;13.796;2022-09-03T04:12:54;100491.75;;;16.08;nan
62800;BME280;48842;51.046;13.796;2022-09-03T04:15:20;100505.88;;;16.08;nan
62800;BME280;48842;51.046;13.796;2022-09-03T04:17:45;100503.28;;;16.05;nan
62800;BME280;48842;51.046;13.796;2022-09-03T04:20:10;100505.91;;;16.05;nan
62800;BME280;48842;51.046;13.796;2022-09-03T04:22:35;100502.41;;;16.03;nan
62800;BME280;48842;51.046;13.796;2022-09-03T04:25:01;100498.94;;;16.01;nan
62800;BME280;48842;51.046;13.796;2022-09-03T04:27:26;100500.72;;;15.99;nan
62800;BME280;48842;51.046;13.796;2022-09-03T04:29:51;100497.19;;;16.00;nan
62800;BME280;48842;51.046;13.796;2022-09-03T04:32:16;100494.56;;;15.98;nan
62800;BME280;48842;51.046;13.796;2022-09-03T04:35:00;100491.94;;;15.97;nan
62800;BME280;48842;51.046;13.796;2022-09-03T04:37:26;100493.75;;;15.95;nan
62800;BME280;48842;51.046;13.796;2022-09-03T04:39:51;100496.44;;;15.93;nan
62800;BME280;48842;51.046;13.796;2022-09-03T04:42:18;100495.53;;;15.93;nan
62800;BME280;48842;51.046;13.796;2022-09-03T04:44:43;100490.25;;;15.93;nan
62800;BME280;48842;51.046;13.796;2022-09-03T04:47:08;100491.16;;;15.92;nan
62800;BME280;48842;51.046;13.796;2022-09-03T04:49:34;100499.09;;;15.92;nan
62800;BME280;48842;51.046;13.796;2022-09-03T04:51:59;100496.44;;;15.90;nan
62800;BME280;48842;51.046;13.796;2022-09-03T04:54:24;100495.63;;;15.86;nan
62800;BME280;48842;51.046;13.796;2022-09-03T04:56:49;100501.81;;;15.85;nan
62800;BME280;48842;51.046;13.796;2022-09-03T04:59:14;100507.13;;;15.84;nan
62800;BME280;48842;51.046;13.796;2022-09-03T05:01:41;100515.06;;;15.82;nan
62800;BME280;48842;51.046;13.796;2022-09-03T05:04:07;100513.31;;;15.83;nan
62800;BME280;48842;51.046;13.796;2022-09-03T05:06:33;100518.63;;;15.81;nan
62800;BME280;48842;51.046;13.796;2022-09-03T05:09:00;100517.75;;;15.79;nan
62800;BME280;48842;51.046;13.796;2022-09-03T05:11:26;100518.63;;;15.78;nan
62800;BME280;48842;51.046;13.796;2022-09-03T05:13:53;100519.53;;;15.79;nan
62800;BME280;48842;51.046;13.796;2022-09-03T05:16:20;100504.53;;;15.78;nan
62800;BME280;48842;51.046;13.796;2022-09-03T05:18:46;100499.25;;;15.79;nan
62800;BME280;48842;51.046;13.796;2022-09-03T05:21:14;100504.53;;;15.81;nan
62800;BME280;48842;51.046;13.796;2022-09-03T05:23:42;100502.78;;;15.81;nan
62800;BME280;48842;51.046;13.796;2022-09-03T05:26:10;100502.78;;;15.81;nan
62800;BME280;48842;51.046;13.796;2022-09-03T05:28:37;100500.13;;;15.81;nan
62800;BME280;48842;51.046;13.796;2022-09-03T05:31:08;100506.25;;;15.83;nan
62800;BME280;48842;51.046;13.796;2022-09-03T05:33:35;100496.56;;;15.82;nan
62800;BME280;48842;51.046;13.796;2022-09-03T05:36:04;100498.31;;;15.83;nan
62800;BME280;48842;51.046;13.796;2022-09-03T05:38:30;100498.31;;;15.83;nan
62800;BME280;48842;51.046;13.796;2022-09-03T05:40:59;100503.59;;;15.83;nan
62800;BME280;48842;51.046;13.796;2022-09-03T05:43:25;100504.44;;;15.85;nan
62800;BME280;48842;51.046;13.796;2022-09-03T05:45:56;100510.63;;;15.86;nan
62800;BME280;48842;51.046;13.796;2022-09-03T05:48:21;100513.22;;;15.89;nan
62800;BME280;48842;51.046;13.796;2022-09-03T05:50:46;100504.31;;;15.95;nan
62800;BME280;48842;51.046;13.796;2022-09-03T05:53:12;100511.28;;;16.00;nan
62800;BME280;48842;51.046;13.796;2022-09-03T05:55:38;100508.53;;;16.07;nan
62800;BME280;48842;51.046;13.796;2022-09-03T05:58:03;100503.19;;;16.11;nan
62800;BME280;48842;51.046;13.796;2022-09-03T06:00:28;100505.72;;;16.16;nan
62800;BME280;48842;51.046;13.796;2022-09-03T06:02:54;100498.66;;;16.19;nan
62800;BME280;48842;51.046;13.796;2022-09-03T06:05:20;100506.53;;;16.21;nan
62800;BME280;48842;51.046;13.796;2022-09-03T06:07:45;100505.59;;;16.23;nan
62800;BME280;48842;51.046;13.796;2022-09-03T06:10:14;100515.25;;;16.26;nan
62800;BME280;48842;51.046;13.796;2022-09-03T06:12:41;100507.28;;;16.28;nan
62800;BME280;48842;51.046;13.796;2022-09-03T06:15:07;100505.53;;;16.30;nan
62800;BME280;48842;51.046;13.796;2022-09-03T06:17:32;100517.78;;;16.32;nan
62800;BME280;48842;51.046;13.796;2022-09-03T06:19:57;100508.09;;;16.33;nan
62800;BME280;48842;51.046;13.796;2022-09-03T06:22:22;100517.75;;;16.37;nan
62800;BME280;48842;51.046;13.796;2022-09-03T06:24:49;100512.41;;;16.40;nan
62800;BME280;48842;51.046;13.796;2022-09-03T06:27:14;100519.38;;;16.44;nan
62800;BME280;48842;51.046;13.796;2022-09-03T06:29:40;100514.91;;;16.48;nan
62800;BME280;48842;51.046;13.796;2022-09-03T06:32:05;100513.94;;;16.52;nan
62800;BME280;48842;51.046;13.796;2022-09-03T06:34:30;100520.94;;;16.56;nan
62800;BME280;48842;51.046;13.796;2022-09-03T06:36:56;100525.25;;;16.60;nan
62800;BME280;48842;51.046;13.796;2022-09-03T06:39:21;100523.38;;;16.67;nan
62800;BME280;48842;51.046;13.796;2022-09-03T06:41:47;100515.34;;;16.71;nan
62800;BME280;48842;51.046;13.796;2022-09-03T06:44:15;100520.53;;;16.76;nan
62800;BME280;48842;51.046;13.796;2022-09-03T06:46:41;100522.22;;;16.82;nan
62800;BME280;48842;51.046;13.796;2022-09-03T06:49:06;100523.94;;;16.84;nan
62800;BME280;48842;51.046;13.796;2022-09-03T06:51:33;100515.06;;;16.88;nan
62800;BME280;48842;51.046;13.796;2022-09-03T06:54:04;100522.09;;;16.91;nan
62800;BME280;48842;51.046;13.796;2022-09-03T06:56:30;100519.31;;;16.97;nan
62800;BME280;48842;51.046;13.796;2022-09-03T06:58:59;100514.78;;;17.02;nan
62800;BME280;48842;51.046;13.796;2022-09-03T07:01:29;100519.09;;;17.08;nan
62800;BME280;48842;51.046;13.796;2022-09-03T07:04:00;100515.44;;;17.14;nan
62800;BME280;48842;51.046;13.796;2022-09-03T07:06:28;100516.31;;;17.16;nan
62800;BME280;48842;51.046;13.796;2022-09-03T07:08:54;100506.47;;;17.21;nan
62800;BME280;48842;51.046;13.796;2022-09-03T07:11:23;100511.75;;;17.22;nan
62800;BME280;48842;51.046;13.796;2022-09-03T07:13:50;100507.22;;;17.27;nan
62800;BME280;48842;51.046;13.796;2022-09-03T07:16:21;100513.31;;;17.31;nan
62800;BME280;48842;51.046;13.796;2022-09-03T07:18:47;100507.06;;;17.35;nan
62800;BME280;48842;51.046;13.796;2022-09-03T07:21:15;100507.84;;;17.39;nan
62800;BME280;48842;51.046;13.796;2022-09-03T07:23:43;100504.25;;;17.43;nan
62800;BME280;48842;51.046;13.796;2022-09-03T07:26:12;100503.28;;;17.47;nan
62800;BME280;48842;51.046;13.796;2022-09-03T07:28:39;100499.69;;;17.50;nan
62800;BME280;48842;51.046;13.796;2022-09-03T07:31:08;100496.03;;;17.55;nan
62800;BME280;48842;51.046;13.796;2022-09-03T07:33:35;100498.56;;;17.60;nan
62800;BME280;48842;51.046;13.796;2022-09-03T07:36:03;100495.00;;;17.62;nan
62800;BME280;48842;51.046;13.796;2022-09-03T07:38:31;100499.28;;;17.67;nan
62800;BME280;48842;51.046;13.796;2022-09-03T07:40:57;100488.66;;;17.70;nan
62800;BME280;48842;51.046;13.796;2022-09-03T07:43:24;100479.69;;;17.74;nan
62800;BME280;48842;51.046;13.796;2022-09-03T07:45:49;100472.59;;;17.76;nan
62800;BME280;48842;51.046;13.796;2022-09-03T07:48:15;100470.69;;;17.81;nan
62800;BME280;48842;51.046;13.796;2022-09-03T07:50:41;100464.41;;;17.85;nan
62800;BME280;48842;51.046;13.796;2022-09-03T07:53:07;100472.25;;;17.91;nan
62800;BME280;48842;51.046;13.796;2022-09-03T07:55:32;100475.69;;;17.96;nan
62800;BME280;48842;51.046;13.796;2022-09-03T07:57:57;100477.34;;;18.01;nan
62800;BME280;48842;51.046;13.796;2022-09-03T08:00:24;100472.78;;;18.06;nan
62800;BME280;48842;51.046;13.796;2022-09-03T08:02:51;100471.75;;;18.11;nan
62800;BME280;48842;51.046;13.796;2022-09-03T08:05:16;100477.84;;;18.17;nan
62800;BME280;48842;51.046;13.796;2022-09-03T08:07:44;100474.13;;;18.24;nan
62800;BME280;48842;51.046;13.796;2022-09-03T08:10:09;100477.50;;;18.29;nan
62800;BME280;48842;51.046;13.796;2022-09-03T08:12:34;100469.34;;;18.37;nan
62800;BME280;48842;51.046;13.796;2022-09-03T08:15:00;100471.00;;;18.41;nan
62800;BME280;48842;51.046;13.796;2022-09-03T08:17:25;100468.19;;;18.47;nan
62800;BME280;48842;51.046;13.796;2022-09-03T08:19:50;100473.34;;;18.53;nan
62800;BME280;48842;51.046;13.796;2022-09-03T08:22:15;100461.72;;;18.59;nan
62800;BME280;48842;51.046;13.796;2022-09-03T08:24:41;100462.44;;;18.64;nan
62800;BME280;48842;51.046;13.796;2022-09-03T08:27:07;100458.75;;;18.70;nan
62800;BME280;48842;51.046;13.796;2022-09-03T08:29:32;100461.22;;;18.76;nan
62800;BME280;48842;51.046;13.796;2022-09-03T08:31:57;100462.78;;;18.83;nan
62800;BME280;48842;51.046;13.796;2022-09-03T08:34:22;100453.72;;;18.92;nan
62800;BME280;48842;51.046;13.796;2022-09-03T08:36:48;100451.78;;;18.98;nan
62800;BME280;48842;51.046;13.796;2022-09-03T08:39:14;100454.28;;;19.03;nan
62800;BME280;48842;51.046;13.796;2022-09-03T08:41:52;100456.72;;;19.11;nan
62800;BME280;48842;51.046;13.796;2022-09-03T08:49:42;100450.88;;;19.29;nan
62800;BME280;48842;51.046;13.796;2022-09-03T08:57:31;100447.72;;;19.45;nan
62800;BME280;48842;51.046;13.796;2022-09-03T09:00:00;100439.63;;;19.49;nan
62800;BME280;48842;51.046;13.796;2022-09-03T09:05:23;100446.34;;;19.61;nan
62800;BME280;48842;51.046;13.796;2022-09-03T09:08:05;100431.16;;;19.65;nan
62800;BME280;48842;51.046;13.796;2022-09-03T09:10:44;100429.22;;;19.70;nan
62800;BME280;48842;51.046;13.796;2022-09-03T09:13:25;100428.16;;;19.76;nan
62800;BME280;48842;51.046;13.796;2022-09-03T09:18:42;100434.94;;;19.86;nan
62800;BME280;48842;51.046;13.796;2022-09-03T09:21:18;100429.41;;;19.92;nan
62800;BME280;48842;51.046;13.796;2022-09-03T09:23:49;100428.41;;;19.96;nan
62800;BME280;48842;51.046;13.796;2022-09-03T09:26:17;100423.78;;;20.01;nan
62800;BME280;48842;51.046;13.796;2022-09-03T09:28:45;100424.50;;;20.07;nan
62800;BME280;48842;51.046;13.796;2022-09-03T09:31:13;100428.78;;;20.11;nan
62800;BME280;48842;51.046;13.796;2022-09-03T09:33:42;100423.31;;;20.15;nan
62800;BME280;48842;51.046;13.796;2022-09-03T09:36:11;100420.44;;;20.21;nan
62800;BME280;48842;51.046;13.796;2022-09-03T09:38:39;100415.88;;;20.25;nan
62800;BME280;48842;51.046;13.796;2022-09-03T09:41:16;100415.78;;;20.28;nan
62800;BME280;48842;51.046;13.796;2022-09-03T09:43:44;100412.94;;;20.33;nan
62800;BME280;48842;51.046;13.796;2022-09-03T09:46:14;100416.31;;;20.38;nan
62800;BME280;48842;51.046;13.796;2022-09-03T09:48:51;100410.81;;;20.43;nan
62800;BME280;48842;51.046;13.796;2022-09-03T09:51:20;100400.88;;;20.48;nan
62800;BME280;48842;51.046;13.796;2022-09-03T09:53:46;100405.97;;;20.54;nan
62800;BME280;48842;51.046;13.796;2022-09-03T09:56:23;100409.34;;;20.59;nan
62800;BME280;48842;51.046;13.796;2022-09-03T09:58:49;100406.47;;;20.65;nan
62800;BME280;48842;51.046;13.796;2022-09-03T10:01:25;100394.94;;;20.66;nan
62800;BME280;48842;51.046;13.796;2022-09-03T10:03:56;100396.53;;;20.70;nan
62800;BME280;48842;51.046;13.796;2022-09-03T10:06:27;100398.28;;;20.71;nan
62800;BME280;48842;51.046;13.796;2022-09-03T10:09:15;100387.50;;;20.74;nan
62800;BME280;48842;51.046;13.796;2022-09-03T10:11:50;100391.78;;;20.79;nan
62800;BME280;48842;51.046;13.796;2022-09-03T10:14:25;100387.19;;;20.84;nan
62800;BME280;48842;51.046;13.796;2022-09-03T10:20:03;100385.97;;;20.92;nan
62800;BME280;48842;51.046;13.796;2022-09-03T10:22:53;100380.44;;;20.97;nan
62800;BME280;48842;51.046;13.796;2022-09-03T10:25:21;100382.94;;;21.02;nan
62800;BME280;48842;51.046;13.796;2022-09-03T10:28:50;100377.16;;;21.13;40.83
62800;BME280;48842;51.046;13.796;2022-09-03T10:31:35;100378.66;;;21.20;40.15
62800;BME280;48842;51.046;13.796;2022-09-03T10:34:15;100373.97;;;21.26;40.27
62800;BME280;48842;51.046;13.796;2022-09-03T10:36:54;100375.59;;;21.31;40.24
62800;BME280;48842;51.046;13.796;2022-09-03T10:39:40;100368.25;;;21.36;40.44
62800;BME280;48842;51.046;13.796;2022-09-03T10:42:33;100360.06;;;21.40;39.67
62800;BME280;48842;51.046;13.796;2022-09-03T10:45:11;100349.97;;;21.49;39.94
62800;BME280;48842;51.046;13.796;2022-09-03T10:50:33;100357.47;;;21.61;39.64
62800;BME280;48842;51.046;13.796;2022-09-03T11:01:23;100356.00;;;21.76;38.25
62800;BME280;48842;51.046;13.796;2022-09-03T11:04:21;100351.38;;;21.79;38.72
62800;BME280;48842;51.046;13.796;2022-09-03T11:06:53;100343.09;;;21.86;38.18
62800;BME280;48842;51.046;13.796;2022-09-03T11:09:39;100344.66;;;21.91;38.60
62800;BME280;48842;51.046;13.796;2022-09-03T11:12:12;100337.41;;;21.95;38.39
62800;BME280;48842;51.046;13.796;2022-09-03T11:14:46;100341.69;;;21.99;38.48
62800;BME280;48842;51.046;13.796;2022-09-03T11:17:20;100351.31;;;22.02;38.96
62800;BME280;48842;51.046;13.796;2022-09-03T11:19:54;100334.31;;;22.04;38.90
62800;BME280;48842;51.046;13.796;2022-09-03T11:22:22;100335.09;;;22.06;38.43
62800;BME280;48842;51.046;13.796;2022-09-03T11:24:53;100331.44;;;22.09;38.60
62800;BME280;48842;51.046;13.796;2022-09-03T11:33:04;100339.78;;;22.22;38.29
62800;BME280;48842;51.046;13.796;2022-09-03T11:45:47;100324.31;;;22.30;37.66
62800;BME280;48842;51.046;13.796;2022-09-03T11:49:08;100330.31;;;22.35;37.66
62800;BME280;48842;51.046;13.796;2022-09-03T11:51:17;100328.38;;;22.39;37.54
62800;BME280;48842;51.046;13.796;2022-09-03T11:53:53;100330.03;;;22.41;37.26
62800;BME280;48842;51.046;13.796;2022-09-03T11:56:18;100330.69;;;22.46;37.48
62800;BME280;48842;51.046;13.796;2022-09-03T11:58:44;100328.69;;;22.52;37.29
62800;BME280;48842;51.046;13.796;2022-09-03T12:01:11;100328.41;;;22.58;37.09
62800;BME280;48842;51.046;13.796;2022-09-03T12:03:56;100323.69;;;22.63;36.50
62800;BME280;48842;51.046;13.796;2022-09-03T12:15:02;100311.66;;;22.73;36.99
62800;BME280;48842;51.046;13.796;2022-09-03T12:17:33;100315.06;;;22.77;37.24
62800;BME280;48842;51.046;13.796;2022-09-03T12:20:12;100320.19;;;22.81;37.17
62800;BME280;48842;51.046;13.796;2022-09-03T12:22:38;100319.09;;;22.86;37.23
62800;BME280;48842;51.046;13.796;2022-09-03T12:25:09;100317.06;;;22.91;37.39
62800;BME280;48842;51.046;13.796;2022-09-03T12:27:35;100318.72;;;22.93;36.95
62800;BME280;48842;51.046;13.796;2022-09-03T12:30:03;100310.63;;;22.95;36.35
62800;BME280;48842;51.046;13.796;2022-09-03T12:32:31;100310.47;;;22.98;36.50
62800;BME280;48842;51.046;13.796;2022-09-03T12:35:10;100312.06;;;23.02;36.14
62800;BME280;48842;51.046;13.796;2022-09-03T12:37:35;100312.72;;;23.07;36.26
62800;BME280;48842;51.046;13.796;2022-09-03T12:40:02;100308.03;;;23.12;36.32
62800;BME280;48842;51.046;13.796;2022-09-03T12:42:30;100311.28;;;23.19;36.14
62800;BME280;48842;51.046;13.796;2022-09-03T12:45:04;100302.09;;;23.25;36.05
62800;BME280;48842;51.046;13.796;2022-09-03T12:47:37;100298.22;;;23.30;36.04
62800;BME280;48842;51.046;13.796;2022-09-03T12:52:54;100288.28;;;23.51;35.99
62800;BME280;48842;51.046;13.796;2022-09-03T12:58:19;100294.63;;;23.84;36.55
62800;BME280;48842;51.046;13.796;2022-09-03T13:01:07;100294.91;;;23.97;35.81
62800;BME280;48842;51.046;13.796;2022-09-03T13:03:56;100286.72;;;24.00;35.61
62800;BME280;48842;51.046;13.796;2022-09-03T13:06:30;100293.13;;;24.13;36.42
62800;BME280;48842;51.046;13.796;2022-09-03T13:09:02;100283.53;;;24.58;36.48
62800;BME280;48842;51.046;13.796;2022-09-03T13:11:33;100287.03;;;24.92;35.58
62800;BME280;48842;51.046;13.796;2022-09-03T13:14:09;100283.44;;;25.24;35.34
62800;BME280;48842;51.046;13.796;2022-09-03T13:19:35;100269.44;;;26.24;33.31
62800;BME280;48842;51.046;13.796;2022-09-03T13:22:13;100276.31;;;26.43;32.75
62800;BME280;48842;51.046;13.796;2022-09-03T13:30:11;100275.53;;;26.55;33.95
62800;BME280;48842;51.046;13.796;2022-09-03T13:33:01;100262.41;;;27.60;32.72
62800;BME280;48842;51.046;13.796;2022-09-03T13:41:33;100258.84;;;31.39;27.45
62800;BME280;48842;51.046;13.796;2022-09-03T13:44:06;100256.81;;;31.94;26.11
62800;BME280;48842;51.046;13.796;2022-09-03T13:46:42;100257.56;;;32.27;25.62
62800;BME280;48842;51.046;13.796;2022-09-03T13:49:31;100254.84;;;32.27;24.37
62800;BME280;48842;51.046;13.796;2022-09-03T13:52:24;100254.84;;;31.75;25.74
62800;BME280;48842;51.046;13.796;2022-09-03T13:54:59;100249.22;;;31.67;26.08
62800;BME280;48842;51.046;13.796;2022-09-03T13:57:37;100255.41;;;32.00;24.94
62800;BME280;48842;51.046;13.796;2022-09-03T14:00:11;100247.19;;;32.42;24.16
62800;BME280;48842;51.046;13.796;2022-09-03T14:02:56;100237.44;;;33.00;23.60
62800;BME280;48842;51.046;13.796;2022-09-03T14:05:24;100236.19;;;33.53;24.11
62800;BME280;48842;51.046;13.796;2022-09-03T14:10:26;100230.28;;;34.52;23.72
62800;BME280;48842;51.046;13.796;2022-09-03T14:15:39;100228.22;;;35.00;21.59
62800;BME280;48842;51.046;13.796;2022-09-03T14:18:14;100223.06;;;34.61;21.67
62800;BME280;48842;51.046;13.796;2022-09-03T14:20:46;100229.16;;;34.17;22.03
62800;BME280;48842;51.046;13.796;2022-09-03T14:23:43;100225.84;;;33.66;22.62
62800;BME280;48842;51.046;13.796;2022-09-03T14:26:16;100225.19;;;33.54;23.07
62800;BME280;48842;51.046;13.796;2022-09-03T14:28:47;100233.47;;;33.43;23.01
62800;BME280;48842;51.046;13.796;2022-09-03T14:31:45;100228.03;;;32.94;22.05
62800;BME280;48842;51.046;13.796;2022-09-03T14:39:54;100240.53;;;31.52;24.64
62800;BME280;48842;51.046;13.796;2022-09-03T14:44:56;100234.88;;;30.58;24.97
62800;BME280;48842;51.046;13.796;2022-09-03T14:47:45;100239.66;;;30.09;25.61
62800;BME280;48842;51.046;13.796;2022-09-03T14:53:29;100246.41;;;29.21;26.65
62800;BME280;48842;51.046;13.796;2022-09-03T14:56:19;100244.78;;;28.83;27.04
62800;BME280;48842;51.046;13.796;2022-09-03T14:59:12;100245.28;;;28.51;27.18
62800;BME280;48842;51.046;13.796;2022-09-03T15:01:52;100247.06;;;28.26;28.35
62800;BME280;48842;51.046;13.796;2022-09-03T15:04:47;100240.84;;;28.00;28.37
62800;BME280;48842;51.046;13.796;2022-09-03T15:07:41;100245.97;;;27.77;28.45
62800;BME280;48842;51.046;13.796;2022-09-03T15:10:25;100243.69;;;27.58;28.94
62800;BME280;48842;51.046;13.796;2022-09-03T15:12:54;100247.22;;;27.46;29.30